Time;durP1;ratioP1;P1;durP2;ratioP2;P2;SDS_P1;SDS_P2;PMS_P1;PMS_P2;Temp;Humidity;BMP_temperature;BMP_pressure;BME280_temperature;BME280_humidity;BME280_pressure;Samples;Min_cycle;Max_cycle;Signal;HPM_P1;HPM_P2
2021/06/06 00:01:32;;;;;;;7.18;3.05;;;19.70;55.20;;;;;;5075806;28;20359;-73
2021/06/06 00:03:59;;;;;;;10.98;3.35;;;19.70;55.40;;;;;;5089259;28;20036;-73
2021/06/06 00:06:36;;;;;;;9.27;3.42;;;19.70;55.70;;;;;;5078138;28;20069;-73
2021/06/06 00:09:09;;;;;;;6.53;3.10;;;19.70;56.20;;;;;;5094221;28;20111;-73
2021/06/06 00:11:40;;;;;;;6.07;3.55;;;19.70;56.40;;;;;;5095917;28;20133;-73
2021/06/06 00:14:10;;;;;;;4.78;3.05;;;19.70;56.60;;;;;;5087862;28;20028;-73
2021/06/06 00:16:58;;;;;;;5.80;3.22;;;19.60;56.60;;;;;;5075620;28;20028;-73
2021/06/06 00:19:26;;;;;;;4.68;3.30;;;19.60;56.80;;;;;;5074636;28;20456;-73
2021/06/06 00:21:53;;;;;;;10.25;3.47;;;19.60;56.90;;;;;;5075375;28;20446;-73
2021/06/06 00:24:22;;;;;;;8.38;3.40;;;19.50;57.10;;;;;;5075088;28;20031;-73
2021/06/06 00:26:48;;;;;;;5.53;3.45;;;19.50;57.40;;;;;;5081483;28;20024;-73
2021/06/06 00:29:14;;;;;;;5.72;3.05;;;19.40;57.50;;;;;;5095404;28;20078;-73
2021/06/06 00:31:40;;;;;;;5.88;3.60;;;19.30;57.70;;;;;;5095281;28;20028;-73
2021/06/06 00:34:06;;;;;;;5.60;3.08;;;19.30;58.00;;;;;;5111171;28;20055;-73
2021/06/06 00:36:33;;;;;;;11.63;3.65;;;19.20;58.10;;;;;;5095428;28;20062;-73
2021/06/06 00:38:59;;;;;;;6.38;3.78;;;19.20;58.40;;;;;;5095114;28;20028;-73
2021/06/06 00:41:28;;;;;;;10.00;4.60;;;19.10;58.70;;;;;;5110884;28;20040;-73
2021/06/06 00:43:54;;;;;;;9.60;3.97;;;19.00;59.40;;;;;;5095199;28;20056;-73
2021/06/06 00:46:22;;;;;;;6.70;3.88;;;18.80;59.80;;;;;;5095199;28;20032;-73
2021/06/06 00:48:49;;;;;;;8.00;4.10;;;18.70;60.30;;;;;;5095155;28;20432;-73
2021/06/06 00:51:40;;;;;;;10.40;4.50;;;18.50;60.60;;;;;;5095318;28;20039;-73
2021/06/06 00:54:16;;;;;;;7.85;4.28;;;18.40;60.90;;;;;;5095455;28;20032;-73
2021/06/06 00:56:47;;;;;;;7.68;4.00;;;18.20;61.20;;;;;;5095095;28;20035;-73
2021/06/06 00:59:15;;;;;;;7.88;4.47;;;18.10;61.10;;;;;;5093424;28;20470;-73
2021/06/06 01:01:41;;;;;;;7.03;4.35;;;18.10;61.30;;;;;;5094868;28;20080;-73
2021/06/06 01:04:07;;;;;;;10.20;4.88;;;18.00;61.20;;;;;;5094694;28;20107;-73
2021/06/06 01:06:42;;;;;;;7.47;4.20;;;17.90;61.10;;;;;;5094386;28;20032;-73
2021/06/06 01:09:09;;;;;;;7.30;3.72;;;17.90;60.90;;;;;;5094613;28;20052;-73
2021/06/06 01:11:38;;;;;;;9.50;4.15;;;17.80;60.70;;;;;;5094562;28;20051;-73
2021/06/06 01:14:14;;;;;;;8.35;4.20;;;17.80;60.60;;;;;;5093145;28;20051;-73
2021/06/06 01:16:50;;;;;;;6.80;4.45;;;17.80;60.80;;;;;;5094614;28;20039;-73
2021/06/06 01:19:33;;;;;;;7.15;3.60;;;17.80;60.90;;;;;;5079048;28;20029;-73
2021/06/06 01:22:09;;;;;;;8.43;4.15;;;17.70;60.80;;;;;;5073647;28;20119;-73
2021/06/06 01:24:39;;;;;;;6.47;4.03;;;17.70;61.10;;;;;;5074076;28;20099;-73
2021/06/06 01:27:15;;;;;;;5.75;4.03;;;17.70;61.40;;;;;;5078401;28;20024;-73
2021/06/06 01:29:58;;;;;;;8.50;4.63;;;17.70;62.00;;;;;;5094249;28;20028;-73
2021/06/06 01:32:35;;;;;;;6.85;4.10;;;17.60;62.70;;;;;;5094174;28;20024;-73
2021/06/06 01:35:08;;;;;;;7.95;4.35;;;17.50;63.50;;;;;;5094096;28;20024;-73
2021/06/06 01:37:36;;;;;;;6.55;4.35;;;17.50;64.10;;;;;;5093430;28;20489;-73
2021/06/06 01:40:13;;;;;;;7.85;4.68;;;17.50;64.20;;;;;;5073918;28;20074;-73
2021/06/06 01:42:43;;;;;;;12.25;5.13;;;17.40;65.10;;;;;;5073444;28;20024;-73
2021/06/06 01:45:16;;;;;;;14.00;5.07;;;17.40;65.30;;;;;;5073786;28;20032;-73
2021/06/06 01:47:45;;;;;;;8.98;4.80;;;17.40;66.10;;;;;;5073568;28;20394;-73
2021/06/06 01:50:21;;;;;;;8.77;4.80;;;17.30;66.40;;;;;;5073845;28;20174;-73
2021/06/06 01:52:50;;;;;;;9.18;5.20;;;17.30;67.10;;;;;;5073407;28;20028;-73
2021/06/06 01:55:19;;;;;;;10.18;5.72;;;17.30;67.30;;;;;;5073434;28;20107;-73
2021/06/06 01:57:46;;;;;;;11.82;5.45;;;17.30;67.80;;;;;;5082348;28;20028;-73
2021/06/06 02:00:45;;;;;;;10.50;5.65;;;17.20;68.20;;;;;;5093703;28;20058;-73
2021/06/06 02:03:12;;;;;;;11.10;5.22;;;17.30;68.80;;;;;;5093797;28;20027;-73
2021/06/06 02:05:38;;;;;;;8.50;4.93;;;17.20;68.60;;;;;;5093249;28;20485;-73
2021/06/06 02:08:08;;;;;;;8.82;4.85;;;17.20;68.90;;;;;;5093588;28;20025;-73
2021/06/06 02:10:45;;;;;;;8.93;5.40;;;17.20;69.40;;;;;;5093516;28;20051;-73
2021/06/06 02:13:22;;;;;;;11.93;5.57;;;17.20;69.80;;;;;;5093375;28;20031;-73
2021/06/06 02:15:56;;;;;;;9.25;5.43;;;17.20;70.10;;;;;;5093621;28;20042;-73
2021/06/06 02:18:25;;;;;;;10.55;5.35;;;17.20;70.20;;;;;;5093534;28;20036;-73
2021/06/06 02:20:51;;;;;;;8.88;4.88;;;17.20;70.10;;;;;;5093627;28;20039;-73
2021/06/06 02:23:25;;;;;;;9.07;4.90;;;17.30;70.00;;;;;;5093589;28;20032;-73
2021/06/06 02:26:06;;;;;;;9.23;5.10;;;17.30;69.80;;;;;;5093524;28;20028;-73
2021/06/06 02:28:40;;;;;;;16.58;4.97;;;17.30;69.50;;;;;;5080449;28;20040;-73
2021/06/06 02:31:09;;;;;;;10.02;5.22;;;17.30;69.30;;;;;;5073432;28;20379;-73
2021/06/06 02:33:37;;;;;;;7.22;5.10;;;17.40;69.20;;;;;;5076061;28;20386;-73
2021/06/06 02:36:07;;;;;;;9.98;5.20;;;17.50;69.00;;;;;;5077473;28;20028;-73
2021/06/06 02:38:38;;;;;;;7.10;5.18;;;17.50;68.80;;;;;;5077153;28;20033;-73
2021/06/06 02:41:31;;;;;;;13.77;5.60;;;17.50;68.40;;;;;;5077395;28;20094;-73
2021/06/06 02:44:05;;;;;;;12.43;5.78;;;17.60;68.50;;;;;;5077490;28;20029;-73
2021/06/06 02:46:32;;;;;;;;;;;17.60;68.20;;;;;;5077450;28;20024;-73
2021/06/06 02:49:09;;;;;;;15.05;5.45;;;17.70;67.80;;;;;;5076926;28;19908;-72
2021/06/06 02:51:41;;;;;;;9.40;5.82;;;17.70;67.80;;;;;;5077205;28;20031;-72
2021/06/06 02:54:14;;;;;;;12.80;5.95;;;17.70;67.90;;;;;;5077213;28;20028;-73
2021/06/06 02:56:51;;;;;;;13.75;6.63;;;17.70;67.90;;;;;;5076848;28;20107;-74
2021/06/06 02:59:26;;;;;;;14.40;8.13;;;17.80;67.90;;;;;;5077066;28;20104;-73
2021/06/06 03:02:03;;;;;;;15.70;7.13;;;17.80;67.90;;;;;;5077073;28;20036;-73
2021/06/06 03:04:32;;;;;;;16.30;6.68;;;17.90;67.90;;;;;;5076792;28;20078;-73
2021/06/06 03:07:15;;;;;;;13.82;6.22;;;18.00;67.80;;;;;;5077053;28;20078;-72
2021/06/06 03:09:41;;;;;;;15.18;5.57;;;18.00;67.70;;;;;;5065502;28;20501;-72
2021/06/06 03:12:09;;;;;;;15.05;5.72;;;18.10;67.70;;;;;;5066448;28;20096;-75
2021/06/06 03:14:41;;;;;;;12.25;5.95;;;18.10;67.70;;;;;;5066495;28;20047;-74
2021/06/06 03:17:27;;;;;;;10.77;5.70;;;18.20;68.30;;;;;;5065639;28;20028;-73
2021/06/06 03:19:57;;;;;;;8.55;5.60;;;18.30;67.50;;;;;;5065527;28;20037;-75
2021/06/06 03:22:31;;;;;;;9.73;5.57;;;18.30;67.50;;;;;;5074544;28;20532;-75
2021/06/06 03:25:04;;;;;;;12.30;5.63;;;18.30;67.50;;;;;;5066762;28;20074;-75
2021/06/06 03:27:37;;;;;;;13.63;5.38;;;18.40;67.40;;;;;;5065549;28;20033;-74
2021/06/06 03:30:09;;;;;;;8.02;5.32;;;18.40;67.50;;;;;;5064991;28;20528;-75
2021/06/06 03:32:37;;;;;;;11.63;5.00;;;18.40;67.40;;;;;;5063923;28;20039;-75
2021/06/06 03:35:05;;;;;;;10.05;5.22;;;18.50;67.50;;;;;;5065467;28;20020;-73
2021/06/06 03:37:31;;;;;;;12.68;5.32;;;18.50;67.50;;;;;;5065955;28;20104;-73
2021/06/06 03:39:57;;;;;;;14.43;4.90;;;18.60;67.40;;;;;;5063163;28;20111;-74
2021/06/06 03:42:24;;;;;;;9.68;4.90;;;18.60;67.00;;;;;;5064196;28;20041;-74
2021/06/06 03:44:50;;;;;;;9.18;4.45;;;18.60;66.70;;;;;;5063730;28;20078;-74
2021/06/06 03:47:16;;;;;;;12.57;5.10;;;18.70;66.20;;;;;;5065848;28;20367;-74
2021/06/06 03:49:42;;;;;;;12.07;4.88;;;18.70;65.60;;;;;;5064411;28;20051;-75
2021/06/06 03:52:09;;;;;;;8.88;4.35;;;18.70;64.90;;;;;;5065168;28;20021;-72
2021/06/06 03:54:35;;;;;;;7.43;4.45;;;18.80;64.30;;;;;;5065478;28;20475;-74
2021/06/06 03:57:01;;;;;;;10.95;5.05;;;18.80;64.00;;;;;;5063079;28;20360;-74
2021/06/06 03:59:26;;;;;;;13.98;5.65;;;18.80;64.50;;;;;;5064670;28;20154;-74
2021/06/06 04:01:53;;;;;;;9.10;5.47;;;18.80;65.40;;;;;;5063698;28;20466;-76
2021/06/06 04:04:19;;;;;;;12.85;5.97;;;18.80;66.40;;;;;;5065837;28;20115;-74
2021/06/06 04:06:45;;;;;;;8.32;5.40;;;18.90;67.20;;;;;;5064685;28;20028;-74
2021/06/06 04:09:10;;;;;;;11.20;5.68;;;18.90;67.90;;;;;;5062731;28;20025;-74
2021/06/06 04:11:37;;;;;;;10.95;6.25;;;18.90;68.30;;;;;;5065752;28;20074;-73
2021/06/06 04:14:04;;;;;;;13.23;5.55;;;18.90;68.50;;;;;;5065365;28;20029;-75
2021/06/06 04:16:31;;;;;;;9.90;5.82;;;18.90;68.70;;;;;;5064959;28;20147;-73
2021/06/06 04:18:57;;;;;;;7.43;5.30;;;19.00;68.50;;;;;;5063194;28;20455;-74
2021/06/06 04:21:26;;;;;;;13.13;5.88;;;19.00;68.40;;;;;;5064697;28;20039;-76
2021/06/06 04:23:52;;;;;;;13.18;5.43;;;19.00;68.30;;;;;;5064914;28;20029;-73
2021/06/06 04:26:19;;;;;;;15.85;5.85;;;19.00;68.00;;;;;;5064256;28;20375;-74
2021/06/06 04:28:44;;;;;;;12.77;5.57;;;19.00;67.80;;;;;;5064471;28;20473;-73
2021/06/06 04:31:11;;;;;;;10.88;5.00;;;19.10;67.50;;;;;;5062838;28;20108;-73
2021/06/06 04:33:38;;;;;;;9.20;4.93;;;19.10;67.40;;;;;;5063107;28;20028;-76
2021/06/06 04:36:05;;;;;;;7.57;4.32;;;19.10;67.00;;;;;;5066321;28;20025;-73
2021/06/06 04:38:32;;;;;;;10.25;4.45;;;19.20;66.60;;;;;;5064393;28;20028;-73
2021/06/06 04:41:03;;;;;;;8.07;4.43;;;19.20;65.90;;;;;;5063186;28;20055;-76
2021/06/06 04:43:29;;;;;;;7.20;4.35;;;19.30;65.20;;;;;;5061427;28;20024;-72
2021/06/06 04:45:55;;;;;;;6.65;3.95;;;19.40;64.40;;;;;;5062668;28;20033;-74
2021/06/06 04:48:24;;;;;;;8.27;3.95;;;19.40;63.70;;;;;;5062384;28;20037;-74
2021/06/06 04:50:51;;;;;;;8.68;4.13;;;19.50;63.00;;;;;;5064636;28;20040;-73
2021/06/06 04:53:17;;;;;;;7.85;4.03;;;19.60;62.60;;;;;;5063002;28;20028;-73
2021/06/06 04:55:43;;;;;;;7.05;4.15;;;19.60;62.40;;;;;;5062564;28;20028;-74
2021/06/06 04:58:14;;;;;;;12.45;4.30;;;19.70;62.20;;;;;;5064457;28;20121;-74
2021/06/06 05:00:41;;;;;;;11.30;4.00;;;19.80;62.00;;;;;;5063270;28;20025;-74
2021/06/06 05:03:08;;;;;;;7.95;3.85;;;19.90;61.70;;;;;;5062686;28;20456;-73
2021/06/06 05:05:34;;;;;;;6.20;3.30;;;20.00;61.10;;;;;;5063972;28;20054;-72
2021/06/06 05:08:02;;;;;;;10.05;3.60;;;20.10;60.50;;;;;;5063064;28;20057;-73
2021/06/06 05:10:30;;;;;;;8.20;3.78;;;20.10;60.10;;;;;;5062294;28;20028;-75
2021/06/06 05:12:56;;;;;;;7.55;3.97;;;20.20;59.90;;;;;;5062494;28;20021;-73
2021/06/06 05:15:23;;;;;;;7.75;3.60;;;20.30;59.60;;;;;;5063105;28;20039;-73
2021/06/06 05:17:49;;;;;;;4.72;3.47;;;20.40;59.10;;;;;;5064001;28;20110;-73
2021/06/06 05:20:17;;;;;;;4.63;2.95;;;20.50;58.60;;;;;;5062357;28;20025;-74
2021/06/06 05:22:43;;;;;;;7.75;3.60;;;20.50;58.20;;;;;;5062579;28;20025;-74
2021/06/06 05:25:10;;;;;;;7.90;3.40;;;20.60;57.90;;;;;;5063561;28;20537;-73
2021/06/06 05:27:36;;;;;;;10.57;3.95;;;20.70;57.60;;;;;;5061486;28;20075;-75
2021/06/06 05:30:05;;;;;;;6.07;3.25;;;20.80;57.40;;;;;;5062874;28;20029;-73
2021/06/06 05:32:30;;;;;;;7.93;3.22;;;20.90;57.00;;;;;;5063590;28;20094;-73
2021/06/06 05:34:56;;;;;;;7.22;3.60;;;21.00;56.80;;;;;;5061901;28;20025;-73
2021/06/06 05:37:22;;;;;;;10.32;3.67;;;21.10;56.50;;;;;;5062113;28;20109;-74
2021/06/06 05:39:48;;;;;;;8.80;3.25;;;21.10;56.20;;;;;;5063311;28;20025;-78
2021/06/06 05:42:13;;;;;;;3.78;2.85;;;21.20;55.80;;;;;;5074137;28;20048;-74
2021/06/06 05:44:39;;;;;;;6.25;2.90;;;21.30;55.40;;;;;;5073844;28;20029;-73
2021/06/06 05:47:05;;;;;;;5.35;2.85;;;21.40;55.10;;;;;;5072709;28;20028;-74
2021/06/06 05:49:32;;;;;;;6.75;3.00;;;21.50;54.70;;;;;;5073067;28;20043;-74
2021/06/06 05:51:58;;;;;;;9.73;3.20;;;21.60;55.00;;;;;;5073771;28;20379;-73
2021/06/06 05:54:23;;;;;;;8.60;3.38;;;21.70;54.30;;;;;;5072513;28;20029;-74
2021/06/06 05:56:49;;;;;;;7.28;3.30;;;21.80;54.20;;;;;;5073982;28;20163;-73
2021/06/06 05:59:15;;;;;;;4.13;3.10;;;21.90;54.30;;;;;;5067508;28;20033;-75
2021/06/06 06:01:41;;;;;;;7.88;3.28;;;22.00;54.10;;;;;;5061236;28;20041;-74
2021/06/06 06:04:07;;;;;;;7.78;3.05;;;22.10;53.90;;;;;;5053698;28;20024;-75
2021/06/06 06:06:32;;;;;;;6.07;2.72;;;22.20;53.70;;;;;;5053542;28;20137;-73
2021/06/06 06:08:58;;;;;;;7.47;3.00;;;22.30;53.50;;;;;;5053013;28;20130;-73
2021/06/06 06:11:24;;;;;;;3.72;2.95;;;22.40;53.50;;;;;;5053493;28;20064;-74
2021/06/06 06:13:51;;;;;;;8.82;3.60;;;22.50;53.60;;;;;;5053578;28;20052;-74
2021/06/06 06:16:21;;;;;;;7.35;3.33;;;22.60;53.80;;;;;;5080677;28;20363;-74
2021/06/06 06:18:49;;;;;;;6.25;3.40;;;22.70;53.90;;;;;;5093603;28;20077;-74
2021/06/06 06:21:16;;;;;;;12.20;4.20;;;22.80;53.40;;;;;;5093277;28;20111;-74
2021/06/06 06:23:43;;;;;;;5.43;3.20;;;22.80;53.20;;;;;;5093667;28;20143;-74
2021/06/06 06:26:09;;;;;;;8.18;3.60;;;22.80;53.20;;;;;;5093599;28;20028;-73
2021/06/06 06:28:35;;;;;;;8.93;2.90;;;22.80;53.40;;;;;;5093287;28;20024;-73
2021/06/06 06:31:01;;;;;;;4.97;2.92;;;22.80;53.30;;;;;;5093415;28;20103;-74
2021/06/06 06:33:27;;;;;;;4.45;3.00;;;22.80;53.30;;;;;;5093393;28;20028;-74
2021/06/06 06:35:53;;;;;;;7.32;3.28;;;22.80;53.40;;;;;;5092220;28;20024;-74
2021/06/06 06:38:19;;;;;;;6.35;3.10;;;22.90;53.40;;;;;;5109292;28;20519;-74
2021/06/06 06:40:44;;;;;;;11.48;3.30;;;22.90;53.50;;;;;;5093238;28;20036;-74
2021/06/06 06:43:11;;;;;;;9.63;3.45;;;23.00;53.60;;;;;;5093406;28;20020;-74
2021/06/06 06:45:41;;;;;;;5.78;2.97;;;23.00;53.70;;;;;;5093242;28;20031;-73
2021/06/06 06:48:31;;;;;;;4.53;2.33;;;23.10;53.80;;;;;;5093438;28;20021;-74
2021/06/06 06:50:59;;;;;;;4.75;2.28;;;23.10;53.30;;;;;;5093086;28;20534;-74
2021/06/06 06:53:25;;;;;;;4.72;2.20;;;23.10;52.90;;;;;;5093323;28;20028;-75
2021/06/06 06:55:51;;;;;;;6.60;2.28;;;23.10;52.70;;;;;;5093275;28;20028;-74
2021/06/06 06:58:18;;;;;;;6.45;1.90;;;23.10;52.70;;;;;;5093044;28;20032;-75
2021/06/06 07:00:49;;;;;;;10.10;2.42;;;23.10;52.60;;;;;;5092584;28;20492;-73
2021/06/06 07:03:22;;;;;;;4.28;2.17;;;23.10;52.70;;;;;;5093350;28;20024;-74
2021/06/06 07:05:48;;;;;;;6.07;2.40;;;23.20;52.60;;;;;;5093184;28;20028;-73
2021/06/06 07:08:18;;;;;;;2.88;2.20;;;23.20;52.60;;;;;;5093507;28;20038;-74
2021/06/06 07:10:45;;;;;;;4.15;2.28;;;23.20;52.50;;;;;;5093102;28;20028;-74
2021/06/06 07:13:11;;;;;;;3.92;2.47;;;23.30;52.70;;;;;;5093312;28;20094;-74
2021/06/06 07:15:38;;;;;;;5.32;2.50;;;23.40;52.50;;;;;;5091723;28;20024;-74
2021/06/06 07:18:07;;;;;;;4.47;2.17;;;23.40;52.20;;;;;;5109040;28;20449;-75
2021/06/06 07:20:35;;;;;;;4.47;2.40;;;23.50;52.00;;;;;;5095784;28;20093;-73
2021/06/06 07:23:04;;;;;;;5.47;2.55;;;23.60;51.80;;;;;;5096951;28;20020;-73
2021/06/06 07:25:29;;;;;;;3.72;2.15;;;23.70;51.90;;;;;;5096505;28;20082;-73
2021/06/06 07:27:58;;;;;;;4.63;2.42;;;23.80;51.80;;;;;;5096612;28;20019;-73
2021/06/06 07:30:31;;;;;;;5.20;2.58;;;23.90;51.50;;;;;;5096706;28;20082;-74
2021/06/06 07:32:59;;;;;;;4.35;2.50;;;24.00;51.30;;;;;;5096799;28;20031;-74
2021/06/06 07:35:27;;;;;;;4.95;2.28;;;24.00;50.90;;;;;;5096593;28;20020;-74
2021/06/06 07:37:54;;;;;;;3.65;2.00;;;24.10;50.90;;;;;;5095371;28;20107;-74
2021/06/06 07:40:23;;;;;;;2.88;2.03;;;24.20;50.50;;;;;;5096431;28;20398;-73
2021/06/06 07:42:49;;;;;;;2.83;2.00;;;24.30;50.30;;;;;;5096659;28;20020;-72
2021/06/06 07:45:16;;;;;;;3.72;2.40;;;24.40;50.20;;;;;;5096204;28;20070;-73
2021/06/06 07:47:42;;;;;;;4.22;2.55;;;24.40;50.30;;;;;;5095094;28;20099;-74
2021/06/06 07:50:15;;;;;;;4.13;2.42;;;24.50;50.50;;;;;;5096375;28;20111;-74
2021/06/06 07:52:41;;;;;;;7.00;2.05;;;24.50;50.10;;;;;;5095960;28;20020;-76
2021/06/06 07:55:10;;;;;;;2.67;2.20;;;24.60;50.20;;;;;;5096281;28;20122;-75
2021/06/06 07:57:37;;;;;;;4.53;2.28;;;24.50;50.30;;;;;;5095948;28;20106;-74
2021/06/06 08:00:09;;;;;;;3.20;1.98;;;24.50;50.10;;;;;;5095731;28;20111;-74
2021/06/06 08:02:35;;;;;;;2.13;1.92;;;24.50;50.10;;;;;;5059353;28;20033;-74
2021/06/06 08:05:01;;;;;;;2.78;2.00;;;24.50;50.00;;;;;;5038164;28;20024;-74
2021/06/06 08:07:28;;;;;;;3.67;2.00;;;24.60;50.20;;;;;;5055871;28;20029;-75
2021/06/06 08:09:55;;;;;;;3.50;1.83;;;24.70;50.50;;;;;;5055746;28;20029;-76
2021/06/06 08:12:25;;;;;;;3.30;2.17;;;24.80;50.30;;;;;;5055572;28;20037;-75
2021/06/06 08:14:51;;;;;;;4.72;2.42;;;24.90;50.00;;;;;;5055552;28;20379;-74
2021/06/06 08:17:16;;;;;;;8.88;3.00;;;25.10;49.70;;;;;;5055420;28;20021;-74
2021/06/06 08:19:42;;;;;;;4.50;2.20;;;25.30;49.60;;;;;;5055472;28;20360;-75
2021/06/06 08:22:08;;;;;;;3.00;2.05;;;25.40;49.50;;;;;;5055323;28;20055;-75
2021/06/06 08:24:34;;;;;;;3.60;2.47;;;25.50;49.30;;;;;;5058706;28;20046;-76
2021/06/06 08:26:59;;;;;;;3.97;2.00;;;25.60;48.90;;;;;;5063701;28;20032;-76
2021/06/06 08:29:25;;;;;;;3.78;1.90;;;25.70;48.80;;;;;;5065040;28;20474;-75
2021/06/06 08:31:52;;;;;;;4.75;2.20;;;25.70;48.50;;;;;;5062395;28;20391;-74
2021/06/06 08:34:21;;;;;;;5.18;1.88;;;25.70;48.30;;;;;;5063430;28;20020;-73
2021/06/06 08:36:47;;;;;;;4.03;2.30;;;25.70;48.30;;;;;;5064984;28;20067;-76
2021/06/06 08:39:20;;;;;;;7.32;2.38;;;25.70;48.30;;;;;;5065383;28;20054;-76
2021/06/06 08:41:53;;;;;;;7.43;2.85;;;25.60;48.10;;;;;;5064795;28;20033;-76
2021/06/06 08:44:33;;;;;;;5.75;2.30;;;25.50;48.30;;;;;;5063965;28;20056;-73
2021/06/06 08:47:18;;;;;;;8.32;2.60;;;25.40;48.40;;;;;;5064920;28;20027;-74
2021/06/06 08:49:50;;;;;;;3.42;2.10;;;25.40;48.50;;;;;;5064733;28;20044;-74
2021/06/06 08:52:35;;;;;;;4.75;2.50;;;25.40;48.80;;;;;;5063272;28;20100;-73
2021/06/06 08:55:10;;;;;;;2.33;2.10;;;25.30;49.00;;;;;;5064262;28;20027;-74
2021/06/06 08:57:55;;;;;;;3.00;2.42;;;25.30;49.30;;;;;;5063237;28;20021;-74
2021/06/06 09:00:34;;;;;;;4.38;2.60;;;25.20;49.50;;;;;;5063945;28;20083;-74
2021/06/06 09:03:06;;;;;;;5.97;2.95;;;25.00;49.40;;;;;;5064216;28;20029;-74
2021/06/06 09:05:36;;;;;;;5.53;2.38;;;24.70;49.60;;;;;;5062695;28;20431;-78
2021/06/06 09:08:06;;;;;;;6.05;2.53;;;24.40;50.10;;;;;;5062750;28;20024;-74
2021/06/06 09:10:39;;;;;;;4.57;2.47;;;24.30;50.60;;;;;;5062387;28;20033;-76
2021/06/06 09:13:09;;;;;;;9.38;2.83;;;24.40;50.90;;;;;;5061049;28;20040;-77
2021/06/06 09:15:35;;;;;;;4.82;2.72;;;24.40;50.70;;;;;;5063511;28;20051;-75
2021/06/06 09:18:22;;;;;;;4.30;2.50;;;24.40;50.90;;;;;;5063692;28;20028;-74
2021/06/06 09:20:50;;;;;;;3.72;2.58;;;24.30;51.10;;;;;;5064104;28;20025;-74
2021/06/06 09:23:28;;;;;;;8.20;2.75;;;24.10;51.50;;;;;;5062830;28;20394;-75
2021/06/06 09:26:18;;;;;;;9.20;3.45;;;24.00;52.00;;;;;;5068759;28;20379;-74
2021/06/06 09:29:01;;;;;;;7.10;3.65;;;23.90;52.50;;;;;;5073891;28;20025;-73
2021/06/06 09:31:27;;;;;;;5.03;3.42;;;23.80;52.80;;;;;;5072832;28;20028;-76
2021/06/06 09:33:53;;;;;;;7.30;3.10;;;23.60;53.10;;;;;;5073771;28;20024;-74
2021/06/06 09:36:22;;;;;;;6.57;3.00;;;23.50;53.70;;;;;;5074010;28;20455;-74
2021/06/06 09:38:52;;;;;;;4.63;2.88;;;23.30;54.20;;;;;;5073906;28;20029;-75
2021/06/06 09:41:26;;;;;;;4.63;3.25;;;23.10;54.60;;;;;;5073175;28;20131;-74
2021/06/06 09:44:32;;;;;;;7.55;3.20;;;23.00;54.90;;;;;;5073251;28;20437;-75
2021/06/06 09:47:00;;;;;;;4.50;2.97;;;22.90;55.10;;;;;;5067105;28;20111;-75
2021/06/06 09:49:36;;;;;;;5.30;2.78;;;22.90;55.40;;;;;;5073777;28;20074;-74
2021/06/06 09:52:11;;;;;;;6.22;3.08;;;23.00;55.60;;;;;;5073671;28;20056;-75
2021/06/06 09:54:38;;;;;;;6.32;3.25;;;23.10;55.60;;;;;;5073553;28;20526;-76
2021/06/06 09:57:16;;;;;;;3.67;2.90;;;23.20;55.40;;;;;;5064013;28;20025;-74
2021/06/06 09:59:42;;;;;;;5.38;3.20;;;23.30;55.30;;;;;;5063184;28;20056;-76
2021/06/06 10:02:11;;;;;;;5.05;2.95;;;23.40;55.50;;;;;;5061270;28;20029;-73
2021/06/06 10:04:39;;;;;;;5.07;3.63;;;23.50;55.70;;;;;;5062129;28;20359;-73
2021/06/06 10:07:28;;;;;;;4.80;3.40;;;23.50;55.40;;;;;;5063206;28;20095;-73
2021/06/06 10:09:55;;;;;;;6.53;3.13;;;23.60;55.40;;;;;;5061841;28;20488;-73
2021/06/06 10:12:34;;;;;;;9.88;3.88;;;23.70;55.40;;;;;;5061523;28;20020;-73
2021/06/06 10:15:06;;;;;;;5.68;3.38;;;23.60;55.60;;;;;;5062794;28;20020;-74
2021/06/06 10:17:43;;;;;;;4.13;3.13;;;23.60;55.90;;;;;;5061511;28;20044;-75
2021/06/06 10:20:09;;;;;;;6.20;3.22;;;23.60;56.20;;;;;;5058469;28;20040;-74
2021/06/06 10:22:39;;;;;;;3.72;3.13;;;23.60;56.00;;;;;;5062313;28;20028;-74
2021/06/06 10:25:11;;;;;;;3.67;2.47;;;23.50;56.20;;;;;;5063219;28;20025;-75
2021/06/06 10:27:45;;;;;;;3.55;2.65;;;23.40;55.70;;;;;;5061823;28;20025;-74
2021/06/06 10:30:22;;;;;;;5.30;2.97;;;23.20;55.40;;;;;;5061163;28;20021;-73
2021/06/06 10:32:54;;;;;;;6.75;2.80;;;23.10;55.30;;;;;;5060637;28;20017;-74
2021/06/06 10:35:26;;;;;;;4.72;2.97;;;22.90;55.10;;;;;;5063837;28;20471;-73
2021/06/06 10:37:56;;;;;;;6.18;3.10;;;22.80;55.50;;;;;;5060208;28;20037;-75
2021/06/06 10:40:38;;;;;;;7.60;2.55;;;22.70;55.60;;;;;;5053112;28;20044;-75
2021/06/06 10:43:25;;;;;;;7.40;2.80;;;22.60;55.70;;;;;;5053192;28;20032;-75
2021/06/06 10:46:09;;;;;;;5.43;2.88;;;22.60;55.60;;;;;;5053112;28;20048;-74
2021/06/06 10:49:00;;;;;;;4.38;3.05;;;22.70;55.80;;;;;;5053327;28;20032;-73
2021/06/06 10:51:55;;;;;;;3.28;2.95;;;22.60;55.90;;;;;;5045524;28;20079;-75
2021/06/06 10:54:46;;;;;;;5.20;3.30;;;22.60;56.10;;;;;;5052649;28;20025;-73
2021/06/06 10:57:24;;;;;;;4.32;3.08;;;22.40;57.10;;;;;;5057208;28;20128;-73
2021/06/06 11:00:18;;;;;;;4.78;3.58;;;22.50;56.90;;;;;;5055616;28;20037;-73
2021/06/06 11:02:50;;;;;;;6.47;3.17;;;22.40;57.10;;;;;;5055607;28;20029;-74
2021/06/06 11:05:34;;;;;;;7.38;3.30;;;22.50;57.10;;;;;;5057006;28;20031;-74
2021/06/06 11:07:59;;;;;;;5.53;3.20;;;22.70;57.00;;;;;;5056793;28;20029;-75
2021/06/06 11:10:25;;;;;;;8.20;3.08;;;22.80;56.70;;;;;;5057350;28;20600;-75
2021/06/06 11:12:54;;;;;;;6.95;3.90;;;22.90;56.70;;;;;;5056507;28;20085;-74
2021/06/06 11:15:34;;;;;;;7.13;4.00;;;23.20;56.60;;;;;;5056705;28;20029;-74
2021/06/06 11:18:20;;;;;;;6.35;3.85;;;23.50;55.10;;;;;;5056794;28;20111;-73
2021/06/06 11:20:55;;;;;;;6.35;3.10;;;23.90;54.10;;;;;;5056739;28;20029;-75
2021/06/06 11:23:47;;;;;;;5.60;3.10;;;24.40;53.40;;;;;;5056638;28;20029;-75
2021/06/06 11:26:36;;;;;;;7.75;3.53;;;25.10;52.60;;;;;;5056634;28;20090;-75
2021/06/06 11:29:16;;;;;;;6.20;4.03;;;25.90;51.40;;;;;;5056685;28;20040;-73
2021/06/06 11:32:17;;;;;;;4.97;3.42;;;26.50;50.30;;;;;;5056379;28;20033;-74
2021/06/06 11:34:49;;;;;;;7.97;3.17;;;27.00;49.40;;;;;;5055494;28;20394;-74
2021/06/06 11:37:29;;;;;;;4.45;3.13;;;27.30;48.70;;;;;;5056398;28;20021;-75
2021/06/06 11:39:58;;;;;;;4.55;2.75;;;27.70;48.20;;;;;;5055822;28;20028;-74
2021/06/06 11:42:40;;;;;;;3.95;2.88;;;28.00;46.90;;;;;;5055903;28;20067;-74
2021/06/06 11:45:29;;;;;;;6.15;3.30;;;28.20;46.10;;;;;;5056189;28;20025;-75
2021/06/06 11:48:07;;;;;;;3.55;2.97;;;28.20;45.80;;;;;;5055874;28;20025;-74
2021/06/06 11:50:56;;;;;;;5.78;3.10;;;28.30;45.70;;;;;;5056204;28;20029;-73
2021/06/06 11:53:33;;;;;;;7.55;3.10;;;28.60;46.00;;;;;;5056258;28;20029;-74
2021/06/06 11:56:22;;;;;;;6.22;3.25;;;29.00;45.90;;;;;;5060029;28;20040;-75
2021/06/06 11:59:17;;;;;;;5.03;2.72;;;29.20;45.10;;;;;;5075832;28;20060;-74
2021/06/06 12:02:16;;;;;;;4.95;3.20;;;29.10;45.30;;;;;;5076025;28;20032;-74
2021/06/06 12:04:41;;;;;;;6.25;3.45;;;29.70;45.40;;;;;;5075468;28;20028;-73
2021/06/06 12:07:23;;;;;;;6.40;3.25;;;30.80;45.10;;;;;;5075251;28;20067;-74
2021/06/06 12:09:50;;;;;;;7.20;3.20;;;31.90;43.70;;;;;;5075384;28;20450;-74
2021/06/06 12:12:23;;;;;;;5.00;2.88;;;32.10;42.40;;;;;;5074984;28;20024;-82
2021/06/06 12:15:16;;;;;;;6.90;3.33;;;32.20;42.70;;;;;;5075116;28;20043;-75
2021/06/06 12:17:42;;;;;;;4.22;2.90;;;32.70;42.10;;;;;;5075457;28;20024;-75
2021/06/06 12:20:14;;;;;;;7.38;3.30;;;32.90;42.10;;;;;;5075045;28;20040;-74
2021/06/06 12:22:41;;;;;;;6.63;2.90;;;33.70;41.10;;;;;;5075710;28;20037;-74
2021/06/06 12:25:17;;;;;;;4.75;2.78;;;34.60;39.60;;;;;;5075475;28;20028;-74
2021/06/06 12:27:58;;;;;;;4.40;3.10;;;35.40;38.40;;;;;;5074986;28;20033;-74
2021/06/06 12:30:32;;;;;;;5.32;2.80;;;36.50;37.40;;;;;;5075511;28;20056;-75
2021/06/06 12:33:04;;;;;;;5.68;2.58;;;37.00;36.80;;;;;;5074947;28;20036;-75
2021/06/06 12:35:38;;;;;;;6.00;2.85;;;36.90;36.20;;;;;;5075009;28;20036;-74
2021/06/06 12:38:05;;;;;;;6.00;2.80;;;36.50;36.00;;;;;;5078849;28;20016;-74
2021/06/06 12:40:35;;;;;;;7.07;2.75;;;36.10;36.30;;;;;;5080633;28;20046;-74
2021/06/06 12:43:03;;;;;;;4.28;2.63;;;36.20;36.30;;;;;;5074780;28;20170;-74
2021/06/06 12:45:31;;;;;;;4.63;2.47;;;36.50;36.30;;;;;;5075032;28;20043;-75
2021/06/06 12:48:12;;;;;;;6.22;3.00;;;37.10;36.20;;;;;;5074981;28;20104;-75
2021/06/06 12:50:39;;;;;;;6.13;3.00;;;37.70;35.70;;;;;;5074755;28;20581;-75
2021/06/06 12:53:23;;;;;;;3.85;2.40;;;37.70;35.30;;;;;;5074910;28;20033;-73
2021/06/06 12:55:50;;;;;;;6.32;2.55;;;38.00;35.30;;;;;;5090299;28;20036;-76
2021/06/06 12:58:15;;;;;;;4.35;2.13;;;38.70;35.00;;;;;;5074824;28;20032;-75
2021/06/06 13:00:49;;;;;;;5.20;2.50;;;39.40;34.00;;;;;;5074601;28;20116;-76
2021/06/06 13:03:27;;;;;;;3.58;2.63;;;40.00;33.40;;;;;;5074812;28;20398;-74
2021/06/06 13:05:55;;;;;;;4.63;2.55;;;40.50;32.50;;;;;;5074443;28;20413;-75
2021/06/06 13:08:35;;;;;;;3.65;2.47;;;40.70;32.10;;;;;;5074770;28;20060;-75